createdAt,value
2019-03-12T00:00:34.690Z,88.55
2019-03-12T00:03:03.118Z,88.61
2019-03-12T00:05:31.533Z,89.17
2019-03-12T00:07:59.943Z,89.06
2019-03-12T00:10:28.439Z,89.34
2019-03-12T00:12:56.908Z,89.54
2019-03-12T00:15:25.378Z,89.31
2019-03-12T00:17:53.859Z,89.58
2019-03-12T00:20:22.305Z,89.30
2019-03-12T00:22:50.794Z,89.35
2019-03-12T00:25:19.278Z,88.71
2019-03-12T00:27:47.680Z,89.16
2019-03-12T00:30:16.219Z,89.03
2019-03-12T00:32:44.661Z,89.25
2019-03-12T00:35:13.252Z,89.77
2019-03-12T00:37:41.705Z,89.86
2019-03-12T00:40:10.364Z,89.92
2019-03-12T00:42:38.754Z,89.86
2019-03-12T00:45:09.733Z,89.81
2019-03-12T00:47:38.250Z,89.89
2019-03-12T00:50:09.095Z,90.01
2019-03-12T00:52:37.582Z,89.99
2019-03-12T00:55:08.091Z,90.01
2019-03-12T00:57:36.586Z,90.12
2019-03-12T01:00:10.986Z,90.20
2019-03-12T01:02:39.406Z,90.34
2019-03-12T01:05:08.223Z,90.49
2019-03-12T01:07:36.634Z,90.61
2019-03-12T01:10:07.580Z,90.67
2019-03-12T01:12:36.021Z,90.93
2019-03-12T01:15:05.977Z,91.25
2019-03-12T01:17:34.377Z,91.15
2019-03-12T01:20:02.934Z,91.19
2019-03-12T01:22:31.398Z,91.20
2019-03-12T01:24:59.805Z,91.10
2019-03-12T01:27:28.233Z,90.95
2019-03-12T01:29:56.698Z,90.89
2019-03-12T01:32:25.261Z,91.23
2019-03-12T01:34:53.698Z,91.09
2019-03-12T01:37:22.118Z,91.42
2019-03-12T01:39:50.575Z,91.00
2019-03-12T01:42:18.957Z,91.07
2019-03-12T01:44:47.351Z,91.66
2019-03-12T01:47:15.959Z,92.12
2019-03-12T01:49:44.479Z,92.21
2019-03-12T01:52:12.955Z,92.29
2019-03-12T01:54:41.388Z,92.38
2019-03-12T01:57:09.856Z,92.34
2019-03-12T01:59:38.288Z,92.23
2019-03-12T02:02:06.759Z,92.34
2019-03-12T02:04:35.235Z,92.20
2019-03-12T02:07:03.743Z,92.05
2019-03-12T02:09:32.255Z,92.04
2019-03-12T02:12:00.677Z,91.71
2019-03-12T02:14:29.530Z,91.75
2019-03-12T02:16:58.032Z,91.82
2019-03-12T02:19:26.525Z,91.85
2019-03-12T02:21:55.076Z,91.47
2019-03-12T02:24:23.567Z,91.02
2019-03-12T02:26:51.950Z,91.37
2019-03-12T02:29:20.447Z,91.84
2019-03-12T02:31:48.929Z,91.99
2019-03-12T02:34:17.421Z,92.39
2019-03-12T02:36:45.911Z,92.47
2019-03-12T02:39:14.359Z,92.50
2019-03-12T02:41:42.812Z,92.43
2019-03-12T02:44:11.224Z,92.37
2019-03-12T02:46:39.650Z,92.46
2019-03-12T02:49:09.820Z,92.47
2019-03-12T02:51:38.252Z,92.47
2019-03-12T02:54:06.640Z,92.58
2019-03-12T02:56:35.057Z,92.68
2019-03-12T02:59:03.474Z,92.62
2019-03-12T03:01:31.881Z,92.42
2019-03-12T03:04:00.281Z,92.58
2019-03-12T03:06:30.318Z,92.87
2019-03-12T03:08:58.801Z,92.93
2019-03-12T03:11:27.369Z,93.04
2019-03-12T03:13:55.796Z,93.20
2019-03-12T03:16:24.786Z,93.39
2019-03-12T03:18:53.231Z,93.37
2019-03-12T03:21:21.915Z,93.45
2019-03-12T03:23:50.304Z,93.24
2019-03-12T03:26:18.726Z,92.86
2019-03-12T03:28:47.179Z,92.92
2019-03-12T03:31:15.616Z,92.97
2019-03-12T03:33:44.125Z,93.21
2019-03-12T03:36:12.567Z,93.18
2019-03-12T03:38:40.980Z,93.50
2019-03-12T03:41:09.422Z,93.25
2019-03-12T03:43:37.870Z,93.39
2019-03-12T03:46:06.268Z,93.30
2019-03-12T03:48:34.679Z,93.34
2019-03-12T03:51:03.146Z,92.78
2019-03-12T03:53:31.682Z,92.88
2019-03-12T03:56:00.083Z,92.87
2019-03-12T03:58:28.591Z,92.46
2019-03-12T04:00:57.065Z,92.52
2019-03-12T04:03:25.482Z,92.30
2019-03-12T04:05:53.877Z,92.37
2019-03-12T04:08:22.385Z,91.96
2019-03-12T04:10:50.787Z,92.12
2019-03-12T04:13:19.284Z,92.03
2019-03-12T04:15:47.715Z,91.92
2019-03-12T04:18:16.169Z,91.91
2019-03-12T04:20:44.591Z,91.66
2019-03-12T04:23:15.797Z,91.04
2019-03-12T04:25:43.725Z,91.13
2019-03-12T04:28:12.118Z,91.37
2019-03-12T04:30:40.532Z,90.87
2019-03-12T04:33:28.394Z,91.14
2019-03-12T04:35:56.803Z,91.00
2019-03-12T04:38:25.224Z,91.31
2019-03-12T04:40:53.638Z,90.61
2019-03-12T04:43:22.169Z,90.59
2019-03-12T04:45:50.591Z,90.41
2019-03-12T04:48:18.971Z,90.04
2019-03-12T04:50:47.421Z,89.82
2019-03-12T04:53:15.850Z,90.25
2019-03-12T04:55:44.242Z,90.33
2019-03-12T04:58:12.669Z,90.45
2019-03-12T05:00:41.131Z,90.53
2019-03-12T05:03:09.612Z,89.87
2019-03-12T05:05:38.011Z,89.97
2019-03-12T05:08:06.443Z,90.25
2019-03-12T05:10:34.852Z,89.85
2019-03-12T05:13:03.266Z,89.56
2019-03-12T05:15:31.752Z,89.59
2019-03-12T05:18:00.149Z,89.39
2019-03-12T05:20:28.583Z,89.92
2019-03-12T05:22:56.987Z,89.44
2019-03-12T05:25:25.408Z,89.02
2019-03-12T05:27:53.849Z,89.09
2019-03-12T05:30:22.258Z,89.14
2019-03-12T05:32:50.742Z,88.89
2019-03-12T05:35:19.235Z,88.98
2019-03-12T05:37:47.652Z,88.71
2019-03-12T05:40:16.722Z,88.67
2019-03-12T05:42:45.207Z,88.82
2019-03-12T05:45:15.646Z,88.53
2019-03-12T05:47:44.219Z,88.54
2019-03-12T05:50:20.093Z,88.96
2019-03-12T05:52:49.523Z,88.79
2019-03-12T05:55:18.948Z,88.59
2019-03-12T05:57:47.469Z,89.07
2019-03-12T06:00:23.393Z,88.54
2019-03-12T06:02:51.861Z,88.10
2019-03-12T06:05:20.341Z,88.08
2019-03-12T06:07:48.841Z,88.27
2019-03-12T06:10:17.386Z,87.94
2019-03-12T06:12:45.943Z,88.26
2019-03-12T06:15:15.711Z,88.65
2019-03-12T06:17:44.192Z,88.38
2019-03-12T06:20:14.771Z,88.59
2019-03-12T06:22:43.256Z,88.70
2019-03-12T06:25:12.199Z,88.20
2019-03-12T06:27:41.510Z,87.65
2019-03-12T06:30:18.699Z,88.41
2019-03-12T06:32:57.325Z,88.22
2019-03-12T06:35:33.524Z,88.07
2019-03-12T06:38:18.646Z,88.27
2019-03-12T06:41:00.763Z,87.60
2019-03-12T06:43:33.562Z,88.16
2019-03-12T06:46:20.211Z,87.74
2019-03-12T06:48:50.400Z,87.83
2019-03-12T06:51:26.291Z,87.93
2019-03-12T06:54:11.663Z,88.04
2019-03-12T06:56:47.189Z,87.63
2019-03-12T06:59:23.039Z,87.73
2019-03-12T07:01:56.186Z,87.80
2019-03-12T07:04:32.287Z,87.65
2019-03-12T07:07:11.424Z,87.64
2019-03-12T07:09:52.316Z,87.67
2019-03-12T07:12:22.441Z,87.75
2019-03-12T07:14:55.189Z,87.63
2019-03-12T07:17:31.150Z,87.18
2019-03-12T07:20:07.262Z,87.34
2019-03-12T07:22:43.198Z,87.16
2019-03-12T07:25:19.376Z,87.30
2019-03-12T07:27:55.033Z,87.44
2019-03-12T07:30:34.124Z,87.43
2019-03-12T07:33:22.102Z,87.15
2019-03-12T07:35:54.652Z,86.94
2019-03-12T07:38:24.690Z,87.15
2019-03-12T07:41:07.221Z,86.67
2019-03-12T07:43:39.773Z,86.04
2019-03-12T07:46:09.875Z,86.12
2019-03-12T07:48:40.000Z,86.09
2019-03-12T07:51:12.708Z,85.68
2019-03-12T07:53:59.437Z,85.73
2019-03-12T07:56:35.476Z,85.90
2019-03-12T07:59:21.539Z,85.45
2019-03-12T08:02:00.382Z,85.39
2019-03-12T08:04:36.172Z,85.32
2019-03-12T08:07:09.391Z,85.16
2019-03-12T08:09:41.910Z,84.96
2019-03-12T08:12:17.689Z,84.68
2019-03-12T08:14:47.754Z,84.74
2019-03-12T08:17:17.879Z,85.02
2019-03-12T08:20:03.899Z,84.72
2019-03-12T08:22:36.617Z,84.50
2019-03-12T08:25:11.211Z,84.36
2019-03-12T08:27:44.088Z,84.32
2019-03-12T08:30:30.744Z,83.78
2019-03-12T08:33:03.301Z,83.77
2019-03-12T08:35:39.038Z,83.69
2019-03-12T08:38:18.124Z,84.32
2019-03-12T08:40:52.685Z,83.44
2019-03-12T08:43:23.046Z,83.03
2019-03-12T08:45:53.126Z,82.57
2019-03-12T08:48:35.076Z,82.56
2019-03-12T08:51:21.369Z,81.74
2019-03-12T08:53:54.407Z,81.48
2019-03-12T08:56:32.866Z,81.41
2019-03-12T08:59:18.454Z,80.26
2019-03-12T09:01:51.551Z,80.62
2019-03-12T09:04:39.735Z,78.95
2019-03-12T09:07:24.939Z,79.93
2019-03-12T09:09:55.025Z,78.62
2019-03-12T09:12:25.083Z,79.21
2019-03-12T09:14:55.209Z,78.69
2019-03-12T09:17:25.335Z,78.33
2019-03-12T09:20:11.618Z,78.26
2019-03-12T09:22:41.669Z,77.84
2019-03-12T09:25:24.011Z,76.85
2019-03-12T09:28:12.403Z,76.89
2019-03-12T09:31:00.461Z,76.27
2019-03-12T09:33:33.356Z,75.29
2019-03-12T09:36:12.559Z,75.96
2019-03-12T09:38:42.606Z,74.83
2019-03-12T09:41:12.798Z,74.97
2019-03-12T09:43:52.101Z,74.31
2019-03-12T09:46:28.141Z,74.78
2019-03-12T09:48:58.205Z,74.06
2019-03-12T09:51:33.971Z,73.42
2019-03-12T09:54:04.029Z,73.84
2019-03-12T09:56:50.411Z,73.79
2019-03-12T09:59:20.479Z,74.12
2019-03-12T10:02:02.505Z,73.56
2019-03-12T10:04:38.575Z,73.81
2019-03-12T10:07:24.798Z,74.39
2019-03-12T10:09:57.470Z,72.41
2019-03-12T10:12:30.865Z,71.51
2019-03-12T10:15:00.900Z,70.93
2019-03-12T10:17:36.802Z,70.62
2019-03-12T10:20:12.444Z,70.21
2019-03-12T10:22:42.520Z,69.87
2019-03-12T10:25:12.666Z,70.62
2019-03-12T10:27:45.407Z,70.27
2019-03-12T10:30:27.659Z,69.43
2019-03-12T10:32:57.766Z,69.91
2019-03-12T10:35:42.604Z,69.16
2019-03-12T10:38:55.278Z,68.81
2019-03-12T10:41:28.037Z,68.23
2019-03-12T10:43:57.506Z,67.34
2019-03-12T10:46:27.584Z,67.18
2019-03-12T10:48:56.013Z,66.51
2019-03-12T10:51:25.096Z,66.74
2019-03-12T10:53:53.578Z,66.60
2019-03-12T10:56:21.999Z,65.15
2019-03-12T10:58:50.498Z,65.20
2019-03-12T11:01:18.875Z,65.04
2019-03-12T11:03:47.297Z,64.52
2019-03-12T11:06:15.773Z,64.18
2019-03-12T11:08:44.212Z,63.63
2019-03-12T11:11:12.685Z,63.32
2019-03-12T11:13:41.113Z,64.22
2019-03-12T11:16:09.626Z,64.86
2019-03-12T11:18:38.105Z,63.62
2019-03-12T11:21:06.611Z,62.67
2019-03-12T11:23:35.045Z,62.75
2019-03-12T11:26:03.547Z,63.51
2019-03-12T11:28:32.025Z,62.80
2019-03-12T11:31:00.451Z,62.32
2019-03-12T11:33:28.926Z,62.85
2019-03-12T11:35:57.375Z,63.24
2019-03-12T11:38:25.813Z,61.94
2019-03-12T11:40:54.270Z,62.04
2019-03-12T11:43:22.875Z,62.74
2019-03-12T11:45:51.367Z,61.73
2019-03-12T11:48:19.782Z,63.27
2019-03-12T11:50:48.244Z,61.34
2019-03-12T11:53:16.680Z,62.43
2019-03-12T11:55:45.174Z,61.73
2019-03-12T11:58:13.684Z,60.29
2019-03-12T12:00:43.834Z,60.22
2019-03-12T12:03:12.384Z,61.27
2019-03-12T12:05:40.938Z,60.41
2019-03-12T12:08:09.422Z,60.96
2019-03-12T12:10:38.595Z,60.50
2019-03-12T12:13:07.081Z,60.56
2019-03-12T12:15:35.637Z,60.49
2019-03-12T12:18:04.400Z,60.48
2019-03-12T12:20:32.827Z,61.74
2019-03-12T12:23:01.245Z,61.08
2019-03-12T12:25:29.734Z,60.38
2019-03-12T12:27:58.235Z,59.76
2019-03-12T12:30:26.779Z,59.50
2019-03-12T12:32:55.276Z,58.96
2019-03-12T12:35:23.685Z,60.00
2019-03-12T12:37:52.158Z,59.07
2019-03-12T12:40:22.023Z,60.07
2019-03-12T12:42:50.506Z,58.98
2019-03-12T12:45:33.419Z,59.25
2019-03-12T12:48:01.874Z,58.95
2019-03-12T12:50:30.520Z,58.80
2019-03-12T12:52:59.103Z,58.63
2019-03-12T12:55:27.586Z,57.46
2019-03-12T12:57:56.104Z,57.48
2019-03-12T13:00:31.543Z,59.07
2019-03-12T13:03:00.158Z,58.44
2019-03-12T13:05:28.743Z,58.13
2019-03-12T13:07:57.159Z,58.08
2019-03-12T13:10:29.909Z,58.50
2019-03-12T13:12:58.395Z,57.59
2019-03-12T13:15:26.817Z,57.89
2019-03-12T13:17:55.299Z,57.48
2019-03-12T13:20:24.000Z,55.83
2019-03-12T13:22:52.620Z,56.78
2019-03-12T13:25:21.374Z,55.55
2019-03-12T13:27:49.864Z,54.78
2019-03-12T13:30:26.368Z,56.87
2019-03-12T13:32:54.841Z,56.67
2019-03-12T13:35:23.422Z,55.67
2019-03-12T13:37:51.942Z,55.63
2019-03-12T13:40:22.421Z,55.86
2019-03-12T13:42:51.133Z,54.73
2019-03-12T13:45:22.224Z,56.11
2019-03-12T13:47:50.834Z,56.39
2019-03-12T13:50:19.549Z,55.47
2019-03-12T13:52:48.085Z,55.52
2019-03-12T13:55:17.136Z,55.73
2019-03-12T13:57:46.116Z,55.92
2019-03-12T14:00:23.042Z,55.44
2019-03-12T14:02:51.521Z,55.07
2019-03-12T14:05:20.261Z,55.99
2019-03-12T14:07:48.829Z,54.85
2019-03-12T14:10:22.773Z,55.17
2019-03-12T14:12:53.400Z,55.66
2019-03-12T14:15:37.892Z,55.80
2019-03-12T14:18:06.530Z,55.40
2019-03-12T14:20:52.629Z,55.92
2019-03-12T14:23:33.029Z,54.77
2019-03-12T14:26:01.613Z,55.78
2019-03-12T14:28:30.119Z,56.30
2019-03-12T14:30:58.699Z,55.17
2019-03-12T14:33:27.305Z,54.39
2019-03-12T14:35:55.774Z,55.42
2019-03-12T14:38:24.554Z,54.94
2019-03-12T14:40:53.138Z,54.81
2019-03-12T14:43:21.626Z,55.14
2019-03-12T14:45:51.753Z,55.07
2019-03-12T14:48:39.135Z,55.02
2019-03-12T14:51:13.523Z,55.50
2019-03-12T14:53:43.589Z,54.98
2019-03-12T14:56:12.074Z,53.51
2019-03-12T14:58:40.633Z,53.70
2019-03-12T15:01:09.012Z,54.76
2019-03-12T15:03:37.402Z,54.76
2019-03-12T15:06:05.974Z,54.41
2019-03-12T15:08:34.466Z,53.36
2019-03-12T15:11:03.007Z,55.22
2019-03-12T15:13:31.447Z,54.37
2019-03-12T15:15:59.845Z,54.15
2019-03-12T15:18:28.264Z,54.25
2019-03-12T15:20:56.671Z,54.13
2019-03-12T15:23:25.074Z,53.25
2019-03-12T15:25:53.546Z,54.16
2019-03-12T15:28:21.944Z,53.78
2019-03-12T15:30:50.503Z,53.74
2019-03-12T15:33:18.912Z,54.23
2019-03-12T15:35:47.384Z,53.11
2019-03-12T15:38:15.913Z,53.59
2019-03-12T15:40:44.370Z,53.34
2019-03-12T15:43:12.787Z,54.09
2019-03-12T15:45:41.194Z,52.62
2019-03-12T15:48:09.697Z,52.21
2019-03-12T15:50:38.106Z,54.81
2019-03-12T15:53:07.281Z,53.51
2019-03-12T15:55:36.173Z,52.71
2019-03-12T15:58:04.679Z,51.15
2019-03-12T16:00:33.084Z,52.04
2019-03-12T16:03:01.501Z,52.29
2019-03-12T16:05:30.027Z,53.16
2019-03-12T16:07:58.438Z,50.92
2019-03-12T16:10:26.854Z,50.51
2019-03-12T16:12:55.235Z,51.08
2019-03-12T16:15:23.712Z,51.59
2019-03-12T16:17:52.191Z,51.65
2019-03-12T16:20:24.084Z,51.41
2019-03-12T16:22:52.473Z,51.03
2019-03-12T16:25:20.879Z,50.43
2019-03-12T16:27:49.286Z,50.24
2019-03-12T16:30:19.140Z,50.83
2019-03-12T16:32:47.547Z,49.84
2019-03-12T16:35:16.103Z,50.53
2019-03-12T16:37:44.491Z,49.28
2019-03-12T16:40:17.460Z,50.20
2019-03-12T16:42:46.026Z,49.60
2019-03-12T16:45:16.706Z,48.70
2019-03-12T16:47:45.219Z,48.67
2019-03-12T16:50:18.073Z,48.99
2019-03-12T16:52:46.577Z,48.94
2019-03-12T16:55:18.740Z,48.07
2019-03-12T16:57:47.164Z,48.39
2019-03-12T17:00:20.132Z,49.04
2019-03-12T17:02:48.572Z,48.83
2019-03-12T17:05:17.134Z,48.96
2019-03-12T17:07:45.569Z,47.89
2019-03-12T17:10:16.648Z,47.84
2019-03-12T17:12:45.186Z,49.45
2019-03-12T17:15:15.934Z,49.24
2019-03-12T17:17:44.443Z,49.33
2019-03-12T17:20:14.557Z,48.71
2019-03-12T17:22:43.037Z,49.44
2019-03-12T17:25:14.614Z,48.44
2019-03-12T17:27:43.201Z,49.63
2019-03-12T17:30:17.088Z,49.60
2019-03-12T17:32:45.724Z,49.88
2019-03-12T17:35:19.824Z,49.39
2019-03-12T17:37:48.230Z,48.82
2019-03-12T17:40:19.278Z,48.96
2019-03-12T17:42:47.757Z,49.00
2019-03-12T17:45:16.229Z,49.38
2019-03-12T17:47:44.665Z,49.89
2019-03-12T17:50:14.239Z,48.96
2019-03-12T17:52:42.774Z,50.58
2019-03-12T17:55:14.265Z,48.96
2019-03-12T17:57:43.126Z,49.94
2019-03-12T18:00:23.604Z,49.33
2019-03-12T18:02:52.102Z,48.94
2019-03-12T18:05:20.503Z,49.70
2019-03-12T18:07:48.929Z,48.94
2019-03-12T18:10:18.915Z,48.43
2019-03-12T18:12:47.695Z,49.18
2019-03-12T18:44:08.118Z,48.66
2019-03-12T18:46:36.550Z,48.90
2019-03-12T18:49:05.053Z,48.04
2019-03-12T18:51:33.522Z,49.21
2019-03-12T18:54:01.944Z,48.40
2019-03-12T18:56:30.346Z,48.37
2019-03-12T18:58:58.806Z,48.56
2019-03-12T19:01:27.307Z,48.39
2019-03-12T19:03:55.737Z,48.76
2019-03-12T19:06:24.149Z,48.44
2019-03-12T19:08:52.769Z,49.47
2019-03-12T19:11:21.208Z,48.32
2019-03-12T19:13:49.720Z,48.25
2019-03-12T19:16:18.111Z,48.39
2019-03-12T19:18:46.678Z,48.48
2019-03-12T19:21:15.075Z,48.21
2019-03-12T19:23:43.581Z,48.63
2019-03-12T19:26:11.985Z,50.57
2019-03-12T19:28:40.444Z,53.32
2019-03-12T19:31:10.547Z,54.84
2019-03-12T19:33:38.988Z,55.17
2019-03-12T19:36:07.453Z,57.95
2019-03-12T19:38:35.868Z,57.31
2019-03-12T19:41:06.358Z,56.29
2019-03-12T19:43:34.882Z,56.52
2019-03-12T19:46:03.384Z,58.85
2019-03-12T19:48:31.888Z,58.64
2019-03-12T19:51:00.292Z,59.01
2019-03-12T19:53:28.759Z,58.94
2019-03-12T19:56:00.232Z,58.77
2019-03-12T19:58:28.883Z,59.61
2019-03-12T20:00:58.156Z,59.11
2019-03-12T20:03:26.703Z,59.45
2019-03-12T20:05:55.243Z,59.62
2019-03-12T20:08:23.665Z,60.51
2019-03-12T20:11:00.895Z,60.79
2019-03-12T20:13:41.254Z,60.61
2019-03-12T20:16:30.949Z,62.39
2019-03-12T20:19:26.378Z,64.71
2019-03-12T20:22:22.092Z,65.54
2019-03-12T20:25:10.064Z,62.83
2019-03-12T20:27:45.289Z,63.92
2019-03-12T20:30:22.469Z,64.82
2019-03-12T20:33:22.038Z,63.79
2019-03-12T20:35:56.077Z,64.02
2019-03-12T20:38:36.759Z,65.03
2019-03-12T20:41:27.550Z,65.07
2019-03-12T20:44:07.774Z,64.00
2019-03-12T20:47:13.124Z,65.32
2019-03-12T20:50:19.096Z,64.93
2019-03-12T20:53:22.277Z,65.07
2019-03-12T20:55:59.646Z,64.86
2019-03-12T20:58:56.295Z,64.80
2019-03-12T21:01:56.457Z,64.80
2019-03-12T21:04:44.567Z,65.23
2019-03-12T21:07:47.691Z,66.91
2019-03-12T21:10:44.833Z,67.97
2019-03-12T21:13:40.457Z,69.15
2019-03-12T21:16:20.596Z,72.10
2019-03-12T21:19:14.304Z,77.08
2019-03-12T21:22:03.923Z,83.25
2019-03-12T21:24:47.582Z,85.20
2019-03-12T21:27:21.845Z,85.66
2019-03-12T21:29:49.685Z,86.78
2019-03-12T21:32:19.054Z,87.69
2019-03-12T21:34:47.750Z,88.08
2019-03-12T21:37:16.366Z,89.45
2019-03-12T21:39:54.424Z,89.50
2019-03-12T21:42:15.229Z,89.51
2019-03-12T21:44:43.781Z,89.47
2019-03-12T21:47:12.342Z,88.87
2019-03-12T21:49:40.843Z,88.90
2019-03-12T21:52:09.378Z,88.70
2019-03-12T21:54:37.958Z,89.01
2019-03-12T21:57:06.346Z,89.55
2019-03-12T21:59:34.839Z,89.05
2019-03-12T22:02:03.349Z,88.86
2019-03-12T22:04:31.723Z,88.88
2019-03-12T22:07:00.196Z,88.96
2019-03-12T22:09:28.766Z,89.48
2019-03-12T22:11:57.255Z,88.98
2019-03-12T22:14:25.720Z,88.80
2019-03-12T22:16:54.932Z,89.19
2019-03-12T22:19:23.343Z,88.32
2019-03-12T22:21:56.295Z,88.15
2019-03-12T22:24:24.669Z,88.50
2019-03-12T22:26:53.114Z,87.81
2019-03-12T22:29:21.528Z,87.77
2019-03-12T22:31:50.055Z,87.97
2019-03-12T22:34:18.477Z,87.62
2019-03-12T22:36:46.856Z,86.35
2019-03-12T22:39:15.279Z,85.83
2019-03-12T22:41:43.692Z,85.80
2019-03-12T22:44:12.109Z,85.54
2019-03-12T22:46:40.507Z,86.30
2019-03-12T22:49:08.912Z,86.59
2019-03-12T22:51:37.324Z,86.23
2019-03-12T22:54:05.816Z,86.40
2019-03-12T22:56:34.221Z,86.57
2019-03-12T22:59:02.713Z,85.89
2019-03-12T23:01:31.319Z,85.51
2019-03-12T23:03:59.728Z,85.81
2019-03-12T23:06:28.908Z,85.76
2019-03-12T23:08:57.806Z,85.98
2019-03-12T23:11:26.465Z,86.05
2019-03-12T23:13:55.025Z,86.26
2019-03-12T23:16:23.536Z,86.08
2019-03-12T23:18:51.986Z,85.99
2019-03-12T23:21:20.448Z,85.83
2019-03-12T23:23:48.880Z,86.15
2019-03-12T23:26:17.334Z,86.24
2019-03-12T23:28:45.733Z,86.22
2019-03-12T23:31:14.206Z,86.09
2019-03-12T23:33:42.819Z,86.20
2019-03-12T23:36:11.632Z,86.01
2019-03-12T23:38:40.112Z,86.26
2019-03-12T23:41:08.554Z,86.15
2019-03-12T23:43:37.008Z,86.41
2019-03-12T23:46:05.751Z,86.51
2019-03-12T23:48:34.171Z,86.52
2019-03-12T23:51:02.834Z,85.65
2019-03-12T23:53:31.306Z,85.67
2019-03-12T23:55:59.792Z,85.71
2019-03-12T23:58:30.387Z,85.39
